Time;durP1;ratioP1;P1;durP2;ratioP2;P2;SDS_P1;SDS_P2;PMS_P1;PMS_P2;Temp;Humidity;BMP_temperature;BMP_pressure;BME280_temperature;BME280_humidity;BME280_pressure;Samples;Min_cycle;Max_cycle;Signal;HPM_P1;HPM_P2
2022/06/24 00:02:14;;;;;;;8.10;5.57;;;13.20;51.80;;;14.11;100.00;99437.28;5006276;28;118220;-77
2022/06/24 00:04:50;;;;;;;7.82;5.47;;;13.20;65.30;;;14.07;100.00;99441.03;5021306;28;115001;-77
2022/06/24 00:07:19;;;;;;;7.95;4.93;;;13.10;92.70;;;13.96;100.00;99436.00;5005501;28;129692;-78
2022/06/24 00:09:49;;;;;;;10.32;5.35;;;13.10;99.90;;;13.90;100.00;99437.34;5007161;28;129534;-78
2022/06/24 00:12:21;;;;;;;7.13;4.85;;;13.10;99.90;;;13.81;100.00;99445.59;5008361;28;117851;-78
2022/06/24 00:14:59;;;;;;;6.82;4.75;;;13.00;99.90;;;13.65;100.00;99442.69;5009149;28;115822;-79
2022/06/24 00:17:30;;;;;;;8.82;4.80;;;13.00;99.90;;;13.60;100.00;99445.63;5005132;28;130236;-79
2022/06/24 00:20:01;;;;;;;10.75;5.97;;;12.90;99.90;;;13.60;100.00;99445.63;5008562;28;128884;-80
2022/06/24 00:22:32;;;;;;;10.35;5.70;;;12.80;99.90;;;13.58;100.00;99447.06;5023470;28;118421;-77
2022/06/24 00:25:18;;;;;;;9.50;5.68;;;12.80;99.90;;;13.54;100.00;99444.22;5023630;28;115043;-78
2022/06/24 00:28:02;;;;;;;9.82;5.00;;;12.80;99.90;;;13.50;100.00;99448.72;5008338;28;129179;-77
2022/06/24 00:30:36;;;;;;;8.25;5.22;;;12.70;99.90;;;13.47;100.00;99452.91;5008888;28;128967;-77
2022/06/24 00:33:15;;;;;;;8.57;5.22;;;12.80;99.90;;;13.37;100.00;99463.41;5026869;28;118425;-78
2022/06/24 00:35:47;;;;;;;8.55;5.57;;;12.80;99.90;;;13.33;100.00;99457.00;4992006;28;114753;-79
2022/06/24 00:38:27;;;;;;;9.73;5.15;;;12.80;99.90;;;13.32;100.00;99456.19;5025609;27;129676;-79
2022/06/24 00:41:01;;;;;;;9.40;5.20;;;12.70;99.90;;;13.36;100.00;99457.16;5050930;27;128872;-77
2022/06/24 00:43:35;;;;;;;7.35;4.80;;;12.70;99.90;;;13.34;100.00;99458.63;5019633;27;118907;-78
2022/06/24 00:46:15;;;;;;;8.18;5.10;;;12.70;99.90;;;13.31;100.00;99455.41;5032437;27;114876;-77
2022/06/24 00:48:50;;;;;;;7.57;5.60;;;12.70;99.90;;;13.35;100.00;99465.66;5050019;27;130312;-77
2022/06/24 00:51:20;;;;;;;8.23;4.72;;;12.70;99.90;;;13.34;100.00;99453.97;5027207;27;128338;-76
2022/06/24 00:53:52;;;;;;;10.65;5.22;;;12.70;99.90;;;13.37;100.00;99463.41;5041447;27;118809;-78
2022/06/24 00:56:26;;;;;;;9.32;5.75;;;12.60;99.90;;;13.38;100.00;99462.28;5022955;27;115143;-78
2022/06/24 00:58:56;;;;;;;9.68;5.68;;;12.60;99.90;;;13.30;100.00;99459.25;5040815;27;129602;-76
2022/06/24 01:01:29;;;;;;;8.40;5.72;;;12.60;99.90;;;13.24;100.00;99466.00;5040398;27;129846;-76
2022/06/24 01:04:00;;;;;;;8.57;5.60;;;12.60;99.90;;;13.20;100.00;99476.00;5040585;27;119040;-76
2022/06/24 01:06:30;;;;;;;10.38;6.57;;;12.60;99.90;;;13.16;100.00;99469.59;5056648;27;116398;-78
2022/06/24 01:08:59;;;;;;;8.65;5.57;;;12.60;99.90;;;13.16;100.00;99469.59;5022468;27;130068;-79
2022/06/24 01:11:30;;;;;;;8.90;6.00;;;12.50;99.90;;;13.15;100.00;99468.03;5024751;27;129025;-80
2022/06/24 01:13:59;;;;;;;8.68;5.57;;;12.50;99.90;;;13.17;100.00;99476.66;5040261;27;118895;-78
2022/06/24 01:16:29;;;;;;;7.65;5.60;;;12.50;99.90;;;13.13;100.00;99481.16;5027310;27;114288;-78
2022/06/24 01:19:08;;;;;;;8.25;5.65;;;12.50;99.90;;;13.14;100.00;99482.75;5041356;27;130430;-78
2022/06/24 01:21:40;;;;;;;9.77;5.30;;;12.50;99.90;;;13.12;100.00;99477.63;5027546;27;128240;-79
2022/06/24 01:24:11;;;;;;;11.02;6.80;;;12.50;99.90;;;13.05;100.00;99482.00;5027536;27;118693;-80
2022/06/24 01:26:42;;;;;;;9.45;5.72;;;12.60;99.90;;;12.97;100.00;99478.19;5040805;27;115357;-79
2022/06/24 01:29:11;;;;;;;9.77;5.97;;;12.60;99.90;;;12.91;100.00;99474.84;5039809;27;130130;-79
2022/06/24 01:31:40;;;;;;;7.85;5.72;;;12.50;99.90;;;12.90;100.00;99476.00;5025497;27;129097;-80
2022/06/24 01:34:09;;;;;;;7.65;5.32;;;12.50;99.90;;;12.94;100.00;99482.38;5040592;27;118693;-79
2022/06/24 01:36:40;;;;;;;8.82;5.88;;;12.50;99.90;;;13.00;100.00;99482.19;5041385;27;114875;-80
2022/06/24 01:39:09;;;;;;;8.98;5.35;;;12.40;99.90;;;13.01;100.00;99483.78;5043053;27;130053;-78
2022/06/24 01:41:40;;;;;;;8.35;5.25;;;12.40;99.90;;;13.04;100.00;99494.84;5028816;27;128406;-78
2022/06/24 01:44:09;;;;;;;10.52;6.78;;;12.40;99.90;;;13.07;100.00;99496.09;5028578;27;118202;-77
2022/06/24 01:46:37;;;;;;;10.65;5.47;;;12.40;99.90;;;13.09;100.00;99491.13;5043628;27;114834;-80
2022/06/24 01:49:07;;;;;;;8.35;5.47;;;12.40;99.90;;;13.11;100.00;99488.88;5059079;27;129130;-77
2022/06/24 01:51:40;;;;;;;9.45;5.57;;;12.40;99.90;;;13.10;100.00;99495.44;5025752;27;128237;-78
2022/06/24 01:54:09;;;;;;;7.85;5.05;;;12.50;99.90;;;13.15;100.00;99495.28;5041601;27;117603;-77
2022/06/24 01:56:38;;;;;;;12.70;5.55;;;12.50;99.90;;;13.21;100.00;99493.13;5042192;27;114844;-79
2022/06/24 01:59:07;;;;;;;9.23;6.00;;;12.50;99.90;;;13.20;100.00;99486.91;5020592;27;130159;-79
2022/06/24 02:01:35;;;;;;;9.45;5.32;;;12.60;99.90;;;13.18;100.00;99505.47;5038780;27;129879;-77
2022/06/24 02:04:03;;;;;;;9.52;5.90;;;12.60;99.90;;;13.19;100.00;99496.19;5026599;27;119578;-79
2022/06/24 02:06:32;;;;;;;7.80;5.20;;;12.60;99.90;;;13.23;100.00;99502.59;5042835;27;115087;-79
2022/06/24 02:09:02;;;;;;;9.23;5.75;;;12.70;99.90;;;13.29;100.00;99495.81;5044165;27;129679;-77
2022/06/24 02:14:17;;;;;;;8.77;5.63;;;12.80;99.90;;;13.42;100.00;99487.75;5043235;27;119164;-79
2022/06/24 02:16:46;;;;;;;10.13;5.20;;;12.80;99.90;;;13.52;100.00;99498.25;5042827;27;115331;-78
2022/06/24 02:19:15;;;;;;;7.82;5.13;;;12.80;99.90;;;13.62;100.00;99502.56;5042118;27;130223;-78
2022/06/24 02:21:44;;;;;;;8.95;5.60;;;12.90;99.90;;;13.69;100.00;99496.56;5027299;27;129159;-78
2022/06/24 02:24:15;;;;;;;9.15;5.57;;;13.00;99.90;;;13.64;100.00;99500.28;5042548;27;119003;-78
2022/06/24 02:26:44;;;;;;;8.90;5.35;;;13.00;99.90;;;13.63;100.00;99507.66;5042749;27;115028;-79
2022/06/24 02:29:13;;;;;;;10.25;5.95;;;13.00;99.90;;;13.66;100.00;99503.47;5026949;27;129342;-80
2022/06/24 02:31:43;;;;;;;10.45;5.85;;;13.10;99.90;;;13.73;100.00;99505.66;5042200;27;129357;-79
2022/06/24 02:34:12;;;;;;;8.93;5.78;;;13.10;99.90;;;13.82;100.00;99503.66;5042517;27;119037;-78
2022/06/24 02:36:41;;;;;;;8.85;5.82;;;13.10;99.90;;;13.91;100.00;99498.94;5027987;27;114014;-79
2022/06/24 02:39:09;;;;;;;8.48;5.30;;;13.20;99.90;;;13.97;100.00;99497.59;5043227;27;130346;-77
2022/06/24 02:41:39;;;;;;;9.75;6.20;;;13.30;99.90;;;14.02;100.00;99500.16;5023596;27;129747;-77
2022/06/24 02:44:08;;;;;;;8.48;5.00;;;13.40;99.90;;;14.15;100.00;99494.75;5027301;27;118727;-78
2022/06/24 02:46:36;;;;;;;8.80;5.32;;;13.50;99.90;;;14.29;100.00;99495.25;5042423;27;115889;-79
2022/06/24 02:49:05;;;;;;;9.85;5.82;;;13.50;99.90;;;14.35;100.00;99496.63;5041888;27;130413;-79
2022/06/24 02:51:33;;;;;;;8.73;5.50;;;13.60;99.90;;;14.44;100.00;99495.72;5041768;27;129293;-78
2022/06/24 02:54:02;;;;;;;8.77;5.40;;;13.70;99.90;;;14.68;100.00;99495.81;5042159;27;119369;-77
2022/06/24 02:56:30;;;;;;;7.45;4.45;;;13.90;99.90;;;15.40;100.00;99497.31;5010561;27;113884;-78
2022/06/24 02:59:00;;;;;;;6.60;4.20;;;14.40;99.90;;;16.62;100.00;99499.97;5026646;27;128435;-79
2022/06/24 03:01:29;;;;;;;7.82;4.25;;;15.20;99.90;;;17.38;100.00;99505.34;5041637;27;129670;-77
2022/06/24 03:03:57;;;;;;;7.85;4.22;;;15.70;34.50;;;18.10;97.37;99501.41;5027007;27;117747;-79
2022/06/24 03:06:26;;;;;;;6.88;3.78;;;16.00;1.00;;;19.28;88.50;99497.19;5042440;27;115260;-82
2022/06/24 03:08:54;;;;;;;5.55;3.67;;;16.70;1.00;;;20.42;82.34;99508.09;5041805;27;130409;-79
2022/06/24 03:11:23;;;;;;;5.63;3.50;;;17.40;1.00;;;21.83;76.04;99510.00;5041831;27;129632;-78
2022/06/24 03:13:52;;;;;;;6.22;3.47;;;18.00;1.00;;;22.93;67.38;99518.97;5041636;27;118755;-78
2022/06/24 03:16:22;;;;;;;5.78;2.95;;;18.70;1.00;;;23.88;64.10;99514.16;5024547;27;114995;-78
2022/06/24 03:18:51;;;;;;;6.68;3.00;;;19.00;99.90;;;24.58;60.97;99515.00;5027171;27;130350;-81
2022/06/24 03:21:19;;;;;;;5.80;3.20;;;19.20;99.90;;;25.62;56.35;99518.88;5042481;27;130023;-77
2022/06/24 03:23:48;;;;;;;5.97;2.67;;;19.40;99.90;;;26.34;54.34;99506.13;5043058;27;118719;-78
2022/06/24 03:26:17;;;;;;;5.15;2.53;;;19.80;99.90;;;26.78;51.84;99520.22;5043429;27;115088;-78
2022/06/24 03:28:46;;;;;;;6.30;3.00;;;19.90;99.90;;;26.01;52.66;99511.31;5027221;27;130464;-78
2022/06/24 03:31:15;;;;;;;7.93;3.28;;;19.80;99.90;;;25.03;54.47;99513.50;5042817;27;129284;-80
2022/06/24 03:33:53;;;;;;;5.82;3.55;;;18.80;99.90;;;23.97;57.41;99512.53;5043660;27;118997;-78
2022/06/24 03:36:22;;;;;;;5.40;3.50;;;18.40;99.90;;;22.98;60.78;99507.53;5026209;27;115844;-78
2022/06/24 03:38:51;;;;;;;4.55;2.97;;;17.90;99.90;;;22.12;64.46;99504.59;5045359;27;129033;-80
2022/06/24 03:41:20;;;;;;;5.40;3.10;;;17.70;99.90;;;21.35;66.77;99508.13;5025143;27;129649;-77
2022/06/24 03:43:49;;;;;;;5.18;2.75;;;17.30;99.90;;;21.04;68.72;99512.25;5043631;27;119395;-78
2022/06/24 03:46:17;;;;;;;5.47;3.00;;;17.20;99.90;;;20.79;69.64;99512.81;5018301;27;115569;-76
2022/06/24 03:48:46;;;;;;;6.65;3.47;;;17.20;99.90;;;20.53;70.47;99519.22;5027794;27;129824;-78
2022/06/24 03:51:16;;;;;;;5.97;3.58;;;17.10;99.90;;;19.98;71.78;99516.28;5002933;28;129566;-78
2022/06/24 03:53:44;;;;;;;5.45;2.65;;;17.00;99.90;;;19.48;73.93;99521.88;4989036;28;117697;-78
2022/06/24 03:56:12;;;;;;;6.20;2.90;;;16.90;99.90;;;18.59;78.08;99506.28;5039566;27;115083;-77
2022/06/24 03:58:41;;;;;;;7.65;3.70;;;16.60;99.90;;;18.64;79.47;99519.69;5038983;27;130450;-77
2022/06/24 04:01:10;;;;;;;5.75;3.10;;;16.80;99.90;;;18.71;79.00;99515.50;5040467;27;129830;-74
2022/06/24 04:03:38;;;;;;;7.25;3.15;;;16.90;99.90;;;18.60;80.05;99523.53;5040998;27;119038;-74
2022/06/24 04:06:07;;;;;;;6.85;2.88;;;16.90;99.90;;;18.77;79.17;99522.28;5040925;27;115361;-77
2022/06/24 04:08:37;;;;;;;4.88;3.00;;;17.00;99.90;;;18.59;78.06;99521.94;5040430;27;130224;-76
2022/06/24 04:11:11;;;;;;;5.43;2.90;;;16.90;99.90;;;18.41;79.01;99524.38;5040185;27;129418;-73
2022/06/24 04:13:39;;;;;;;6.18;3.10;;;17.00;99.90;;;18.59;79.88;99522.75;5025502;27;117734;-75
2022/06/24 04:16:08;;;;;;;7.32;2.75;;;17.10;99.90;;;18.92;78.78;99524.13;5040765;27;115954;-74
2022/06/24 04:18:37;;;;;;;6.60;3.05;;;17.40;99.90;;;19.12;77.59;99527.63;5025041;27;129351;-75
2022/06/24 04:21:14;;;;;;;4.35;2.45;;;17.60;99.90;;;18.90;75.12;99529.22;5039983;27;130214;-76
2022/06/24 04:23:45;;;;;;;5.60;2.80;;;17.40;99.90;;;18.76;75.03;99527.00;5040745;27;118902;-79
2022/06/24 04:26:14;;;;;;;4.55;2.22;;;17.30;99.90;;;18.71;75.63;99529.22;5042594;27;115342;-77
2022/06/24 04:28:43;;;;;;;5.03;2.60;;;17.40;99.90;;;18.80;75.62;99538.03;5025852;27;129804;-77
2022/06/24 04:31:12;;;;;;;4.18;2.45;;;17.50;99.90;;;19.04;75.08;99537.69;5022221;27;129978;-78
2022/06/24 04:33:41;;;;;;;5.18;2.58;;;17.50;99.90;;;19.32;74.93;99542.06;5040993;27;118497;-78
2022/06/24 04:36:13;;;;;;;4.35;2.50;;;17.80;99.90;;;19.45;73.59;99539.13;5040391;27;114962;-76
2022/06/24 04:38:43;;;;;;;4.20;2.20;;;17.70;99.90;;;19.47;73.93;99536.78;5041026;27;130319;-77
2022/06/24 04:41:13;;;;;;;7.05;2.72;;;17.80;99.90;;;19.60;73.50;99535.38;5040119;27;129705;-77
2022/06/24 04:43:41;;;;;;;4.43;2.67;;;17.80;99.90;;;19.55;74.39;99535.72;5040202;27;118735;-78
2022/06/24 04:46:10;;;;;;;5.50;2.40;;;18.00;99.90;;;19.70;73.48;99551.28;5040327;27;115183;-78
2022/06/24 04:48:39;;;;;;;6.40;2.92;;;18.10;99.90;;;19.84;71.71;99545.19;5039647;27;130443;-77
2022/06/24 04:51:13;;;;;;;5.95;2.50;;;18.30;99.90;;;19.92;72.48;99543.34;5039740;27;129600;-77
2022/06/24 04:53:43;;;;;;;3.67;2.00;;;18.50;99.90;;;20.07;71.87;99542.34;5040202;27;118679;-78
2022/06/24 04:56:12;;;;;;;5.18;2.42;;;18.70;99.90;;;20.27;71.56;99536.66;5040062;27;115508;-78
2022/06/24 04:58:40;;;;;;;4.43;2.30;;;18.80;99.90;;;20.39;71.01;99539.16;5039717;27;130156;-78
2022/06/24 05:01:09;;;;;;;3.97;2.40;;;18.90;99.90;;;20.42;70.71;99535.66;5024085;27;129251;-80
2022/06/24 05:03:37;;;;;;;4.65;2.50;;;19.00;99.90;;;20.59;69.64;99539.78;5038733;27;118717;-79
2022/06/24 05:06:06;;;;;;;7.50;2.33;;;19.00;99.90;;;20.73;70.26;99543.88;5025382;27;114688;-76
2022/06/24 05:08:34;;;;;;;4.18;2.10;;;19.10;99.90;;;20.79;69.88;99536.84;5023750;27;130149;-78
2022/06/24 05:11:06;;;;;;;4.68;2.50;;;19.20;99.90;;;20.99;68.22;99551.22;5021007;27;130534;-76
2022/06/24 05:13:34;;;;;;;7.53;3.03;;;19.30;99.90;;;21.04;68.03;99548.09;5039820;27;118752;-77
2022/06/24 05:16:03;;;;;;;3.65;2.17;;;19.20;99.90;;;21.07;68.78;99552.09;5039974;27;115878;-78
2022/06/24 05:18:33;;;;;;;4.50;2.40;;;19.40;99.90;;;20.92;68.21;99548.41;5039707;27;130958;-76
2022/06/24 05:21:02;;;;;;;8.40;2.45;;;19.40;99.90;;;21.16;68.53;99550.56;5043167;27;128890;-78
2022/06/24 05:23:31;;;;;;;3.72;2.13;;;19.50;99.90;;;21.32;67.86;99542.03;5039885;27;118728;-77
2022/06/24 05:25:59;;;;;;;4.28;2.03;;;19.60;99.90;;;21.45;67.92;99553.53;5039952;27;115863;-77
2022/06/24 05:28:29;;;;;;;5.63;2.60;;;19.70;99.90;;;21.48;67.19;99538.97;5037896;27;130380;-77
2022/06/24 05:30:58;;;;;;;4.43;2.40;;;19.90;99.90;;;21.67;66.04;99543.44;5037801;27;129664;-77
2022/06/24 05:33:27;;;;;;;4.50;2.58;;;19.90;99.90;;;21.81;66.99;99539.97;5024904;27;118193;-77
2022/06/24 05:35:56;;;;;;;5.15;2.50;;;20.10;99.90;;;21.90;66.34;99540.41;5040016;27;115362;-77
2022/06/24 05:38:24;;;;;;;5.10;2.58;;;20.20;99.90;;;22.11;65.91;99544.47;5039676;27;129614;-79
2022/06/24 05:40:53;;;;;;;5.93;2.90;;;20.40;99.90;;;22.17;65.17;99545.66;5043012;27;129600;-78
2022/06/24 05:43:22;;;;;;;5.90;2.60;;;20.60;99.90;;;22.29;63.26;99538.22;5043351;27;118639;-78
2022/06/24 05:45:52;;;;;;;5.38;2.25;;;20.30;99.90;;;22.45;63.79;99541.44;5043286;27;114996;-77
2022/06/24 05:48:20;;;;;;;6.45;2.38;;;20.70;99.90;;;22.55;63.63;99543.44;5027649;27;128827;-77
2022/06/24 05:50:49;;;;;;;5.47;2.67;;;20.70;99.90;;;22.30;64.19;99543.38;5024101;27;129704;-77
2022/06/24 05:56:04;;;;;;;5.70;2.42;;;20.60;99.90;;;22.04;64.80;99547.19;5043406;27;114994;-78
2022/06/24 05:58:33;;;;;;;5.95;2.63;;;20.80;99.90;;;22.15;67.15;99542.50;5042746;27;130275;-77
2022/06/24 06:01:10;;;;;;;8.55;2.53;;;20.90;99.90;;;22.03;66.27;99545.59;5027339;27;129200;-72
2022/06/24 06:03:40;;;;;;;8.27;3.28;;;21.00;99.90;;;22.18;66.50;99550.00;5042134;27;119294;-78
2022/06/24 06:06:09;;;;;;;4.63;2.42;;;21.10;99.90;;;22.14;65.05;99540.13;5043613;27;116175;-77
2022/06/24 06:08:39;;;;;;;6.82;2.55;;;21.00;99.90;;;22.03;66.75;99545.59;5042670;27;130686;-76
2022/06/24 06:11:14;;;;;;;5.72;2.45;;;20.90;99.90;;;22.21;65.73;99554.75;5040718;27;129809;-77
2022/06/24 06:13:44;;;;;;;5.30;2.55;;;21.00;99.90;;;22.42;65.22;99545.78;5025450;27;118123;-75
2022/06/24 06:16:15;;;;;;;5.57;2.60;;;21.30;99.90;;;22.46;65.47;99545.78;5040366;27;115158;-77
2022/06/24 06:18:44;;;;;;;6.03;2.90;;;21.40;99.90;;;22.94;64.65;99542.72;5025988;27;129419;-77
2022/06/24 06:21:13;;;;;;;5.53;2.30;;;21.30;99.90;;;22.94;64.33;99542.72;5042054;27;129192;-77
2022/06/24 06:23:42;;;;;;;4.93;2.67;;;21.60;99.90;;;23.08;63.26;99543.91;5027239;27;118361;-76
2022/06/24 06:26:12;;;;;;;5.50;2.65;;;21.60;99.90;;;23.34;62.80;99542.72;5042553;27;115291;-76
2022/06/24 06:28:41;;;;;;;4.68;2.17;;;21.80;99.90;;;23.51;62.46;99541.13;5042007;27;130365;-78
2022/06/24 06:31:11;;;;;;;6.65;3.13;;;22.10;99.90;;;23.73;60.46;99546.63;5042041;27;129218;-77
2022/06/24 06:33:41;;;;;;;3.88;2.17;;;22.30;99.90;;;23.72;60.43;99540.28;5042293;27;118933;-76
2022/06/24 06:36:11;;;;;;;4.25;2.25;;;22.30;99.90;;;23.70;56.72;99542.69;5041886;27;115212;-76
2022/06/24 06:38:41;;;;;;;4.30;2.22;;;22.30;99.90;;;23.54;58.59;99539.53;5041879;27;130545;-76
2022/06/24 06:41:09;;;;;;;4.97;2.20;;;22.30;99.90;;;23.61;57.27;99545.84;5041715;27;130509;-76
2022/06/24 06:43:38;;;;;;;3.72;2.10;;;22.40;99.90;;;23.61;56.76;99554.16;5041999;27;118972;-74
2022/06/24 06:46:10;;;;;;;4.72;2.50;;;22.40;99.90;;;23.71;56.20;99546.22;5042083;27;117120;-77
2022/06/24 06:48:41;;;;;;;3.72;2.33;;;22.30;99.90;;;23.49;57.83;99551.81;5039956;27;129923;-77
2022/06/24 06:51:11;;;;;;;3.80;2.10;;;22.30;99.90;;;23.44;57.57;99552.22;5039795;27;128905;-75
2022/06/24 06:53:40;;;;;;;5.18;2.30;;;22.30;99.90;;;23.57;57.98;99547.84;4995190;28;117877;-75
2022/06/24 06:56:09;;;;;;;5.38;2.38;;;22.30;99.90;;;23.74;57.11;99548.19;5022181;28;115603;-77
2022/06/24 06:58:38;;;;;;;7.22;2.42;;;22.40;99.90;;;23.88;58.24;99544.63;5005928;28;128730;-76
2022/06/24 07:01:07;;;;;;;6.63;2.25;;;22.70;99.90;;;24.17;54.95;99548.09;5024082;28;129829;-75
2022/06/24 07:03:35;;;;;;;5.55;2.28;;;22.80;99.90;;;24.18;55.06;99544.09;5003377;28;119276;-74
2022/06/24 07:06:06;;;;;;;4.53;2.20;;;23.00;99.90;;;24.33;52.57;99551.16;5021805;28;116048;-76
2022/06/24 07:08:35;;;;;;;4.03;2.13;;;23.20;99.90;;;24.70;50.02;99546.25;5020967;28;129579;-75
2022/06/24 07:11:05;;;;;;;5.32;2.40;;;23.30;99.90;;;24.89;53.06;99542.16;5021310;28;130232;-77
2022/06/24 07:13:33;;;;;;;3.35;1.65;;;23.50;99.90;;;24.58;48.89;99539.19;5021289;28;118841;-75
2022/06/24 07:16:02;;;;;;;4.47;1.80;;;23.20;99.90;;;24.43;50.60;99551.50;5006629;28;114359;-76
2022/06/24 07:18:31;;;;;;;3.33;1.88;;;23.20;99.90;;;24.37;53.32;99551.94;5020588;28;129939;-77
2022/06/24 07:20:59;;;;;;;4.75;2.05;;;23.20;99.90;;;24.54;51.21;99549.47;5020784;28;129298;-75
2022/06/24 07:23:29;;;;;;;3.92;1.75;;;23.40;99.90;;;24.53;48.24;99542.34;5020476;28;119015;-77
2022/06/24 07:26:00;;;;;;;7.20;1.92;;;23.30;99.90;;;24.65;49.72;99550.25;5021184;28;115080;-77
2022/06/24 07:28:28;;;;;;;4.32;1.85;;;23.20;99.90;;;24.86;50.64;99542.97;5006779;28;130460;-76
2022/06/24 07:30:57;;;;;;;3.22;2.13;;;23.50;99.90;;;24.75;49.36;99543.81;5037120;27;129557;-78
2022/06/24 07:33:30;;;;;;;4.20;1.73;;;23.40;99.90;;;24.93;48.20;99542.88;4990730;28;119182;-75
2022/06/24 07:35:59;;;;;;;3.92;1.77;;;23.40;99.90;;;24.73;48.93;99540.66;5023649;28;115898;-77
2022/06/24 07:38:29;;;;;;;3.58;1.60;;;23.40;99.90;;;24.74;46.25;99542.25;5002656;28;130146;-74
2022/06/24 07:40:57;;;;;;;2.55;1.42;;;23.30;99.90;;;24.80;47.48;99539.81;5020858;28;130029;-75
2022/06/24 07:43:26;;;;;;;4.47;2.13;;;23.50;99.90;;;24.96;47.23;99544.84;5023081;28;117988;-76
2022/06/24 07:45:55;;;;;;;2.80;1.73;;;23.80;99.90;;;24.92;46.96;99547.66;5020004;28;115626;-75
2022/06/24 07:48:23;;;;;;;2.58;1.60;;;23.60;99.90;;;25.02;47.28;99539.66;5023373;28;129905;-76
2022/06/24 07:50:52;;;;;;;3.35;2.00;;;23.80;99.90;;;24.88;47.08;99540.56;5022007;28;128763;-77
2022/06/24 07:53:21;;;;;;;5.72;2.10;;;23.80;99.90;;;24.79;45.62;99537.44;5021340;28;118791;-73
2022/06/24 07:58:37;;;;;;;3.03;1.60;;;24.00;99.90;;;24.97;45.76;99538.09;5021032;28;131051;-73
2022/06/24 08:01:05;;;;;;;3.72;1.55;;;23.90;99.90;;;24.63;44.22;99544.28;5019807;28;130035;-74
2022/06/24 08:03:34;;;;;;;8.25;1.85;;;23.50;99.90;;;24.57;45.47;99537.59;5020833;28;119179;-74
2022/06/24 08:06:02;;;;;;;6.07;1.83;;;23.50;99.90;;;24.85;46.93;99535.81;5019624;28;114932;-74
2022/06/24 08:08:31;;;;;;;4.13;1.80;;;23.80;99.90;;;24.82;45.78;99537.41;5020432;28;130180;-70
2022/06/24 08:11:01;;;;;;;3.50;1.80;;;23.80;99.90;;;24.86;45.79;99532.63;5020114;28;129534;-76
2022/06/24 08:13:32;;;;;;;4.65;1.88;;;23.90;99.90;;;24.70;43.91;99535.94;5020748;28;119153;-75
2022/06/24 08:16:01;;;;;;;3.42;1.77;;;23.70;99.90;;;24.97;43.82;99524.22;5023356;28;115961;-77
2022/06/24 08:18:29;;;;;;;4.03;1.70;;;23.90;99.90;;;25.10;45.18;99525.31;5005250;28;129171;-75
2022/06/24 08:20:58;;;;;;;3.92;1.77;;;24.20;99.90;;;24.60;45.26;99527.69;5020267;28;129897;-72
2022/06/24 08:23:27;;;;;;;2.72;1.77;;;23.60;99.90;;;24.77;44.73;99524.75;5020269;28;119705;-76
2022/06/24 08:25:55;;;;;;;3.83;1.67;;;23.90;99.90;;;25.05;43.27;99520.19;5002993;28;114989;-77
2022/06/24 08:28:25;;;;;;;4.30;1.75;;;24.00;99.90;;;25.23;45.07;99527.59;5019882;28;129891;-76
2022/06/24 08:30:53;;;;;;;3.45;1.75;;;24.20;99.90;;;25.66;43.21;99516.06;5020238;28;129847;-77
2022/06/24 08:33:22;;;;;;;4.03;1.80;;;24.50;99.90;;;25.54;44.32;99517.41;5020309;28;118817;-76
2022/06/24 08:35:51;;;;;;;2.97;1.70;;;24.40;99.90;;;25.39;42.36;99513.19;5020656;28;116619;-75
2022/06/24 08:38:20;;;;;;;3.28;1.58;;;24.20;99.90;;;25.75;43.64;99504.47;5019881;28;129980;-78
2022/06/24 08:40:51;;;;;;;4.78;1.92;;;24.50;99.90;;;25.43;42.48;99506.38;5002102;28;129217;-74
2022/06/24 08:43:24;;;;;;;2.67;1.58;;;24.30;99.90;;;25.50;41.90;99508.28;5020025;28;119561;-75
2022/06/24 08:45:53;;;;;;;2.28;1.50;;;24.40;99.90;;;25.96;42.31;99508.97;5020476;28;115199;-76
2022/06/24 08:48:22;;;;;;;2.72;1.58;;;24.40;99.90;;;25.55;42.96;99509.84;5019335;28;129838;-74
2022/06/24 08:50:51;;;;;;;4.80;1.60;;;24.40;99.90;;;25.90;42.54;99505.06;5019256;28;130571;-74
2022/06/24 08:53:23;;;;;;;3.17;1.77;;;24.70;99.90;;;25.36;40.88;99509.22;5019684;28;119579;-77
2022/06/24 08:55:52;;;;;;;4.75;1.80;;;24.40;99.90;;;25.54;42.05;99511.03;5002379;28;114780;-74
2022/06/24 08:58:20;;;;;;;3.70;1.67;;;24.40;99.90;;;25.68;40.98;99508.13;5035637;27;129947;-80
2022/06/24 09:00:50;;;;;;;3.30;1.63;;;24.40;99.90;;;25.52;41.61;99505.09;5025334;27;128783;-77
2022/06/24 09:03:19;;;;;;;4.03;1.73;;;24.40;99.90;;;25.47;41.09;99509.13;5025498;27;118800;-78
2022/06/24 09:05:48;;;;;;;5.18;1.80;;;24.30;99.90;;;25.28;42.35;99502.97;5040157;27;116022;-78
2022/06/24 09:08:17;;;;;;;3.15;1.80;;;24.10;99.90;;;25.51;41.18;99504.31;5039597;27;130058;-75
2022/06/24 09:11:06;;;;;;;5.85;2.08;;;24.40;99.90;;;25.70;43.29;99497.38;5021997;27;129167;-76
2022/06/24 09:13:43;;;;;;;4.03;2.15;;;24.40;99.90;;;25.73;43.09;99507.66;5022690;28;118924;-77
2022/06/24 09:16:17;;;;;;;4.65;1.73;;;24.70;99.90;;;25.82;42.05;99491.25;5008785;28;113687;-78
2022/06/24 09:18:52;;;;;;;2.83;1.70;;;24.70;99.90;;;25.84;41.33;99488.84;5007776;28;129962;-79
2022/06/24 09:21:27;;;;;;;3.20;1.70;;;24.60;99.90;;;26.34;41.18;99486.66;5007659;28;128739;-79
2022/06/24 09:24:00;;;;;;;4.10;1.80;;;24.40;99.90;;;26.60;40.99;99487.03;5023255;28;119266;-84
2022/06/24 09:26:36;;;;;;;3.92;1.58;;;24.80;99.90;;;26.38;41.40;99495.72;5023482;28;116217;-76
2022/06/24 09:29:07;;;;;;;4.47;1.63;;;24.80;99.90;;;26.53;41.45;99488.72;5023188;28;130890;-75
2022/06/24 09:31:38;;;;;;;3.90;1.90;;;25.00;99.90;;;26.68;41.97;99494.13;5008252;28;128236;-75
2022/06/24 09:34:12;;;;;;;3.90;1.75;;;25.20;99.90;;;26.19;42.47;99492.41;5023389;28;118963;-76
2022/06/24 09:36:44;;;;;;;2.90;1.65;;;25.00;99.90;;;25.93;41.82;99501.44;5025645;28;114946;-80
2022/06/24 09:39:14;;;;;;;2.92;1.63;;;24.60;99.90;;;25.74;43.12;99500.09;5022342;28;129985;-75
2022/06/24 09:41:46;;;;;;;6.53;1.77;;;24.70;99.90;;;26.13;41.57;99498.84;5022641;28;129582;-74
2022/06/24 09:44:16;;;;;;;5.07;1.80;;;24.90;99.90;;;26.36;40.34;99487.00;5008086;28;118998;-80
2022/06/24 09:46:48;;;;;;;4.30;1.70;;;25.00;99.90;;;26.54;40.96;99487.53;5023297;28;116026;-79
2022/06/24 09:49:18;;;;;;;3.22;1.83;;;25.20;99.90;;;27.03;42.62;99487.16;5022623;28;130029;-77
2022/06/24 09:51:47;;;;;;;7.93;1.92;;;25.60;99.90;;;27.06;42.30;99493.88;5007780;28;129345;-78
2022/06/24 09:54:16;;;;;;;4.32;1.92;;;25.40;99.90;;;26.50;42.70;99488.78;5022777;28;118912;-76
2022/06/24 09:56:45;;;;;;;8.25;2.47;;;25.00;99.90;;;26.64;43.18;99482.22;5025031;28;114155;-78
2022/06/24 10:02:05;;;;;;;3.53;2.00;;;25.00;99.90;;;27.33;42.48;99471.56;5020337;28;130590;-77
2022/06/24 10:04:35;;;;;;;5.60;2.38;;;25.20;99.90;;;26.95;44.41;99469.00;5024150;27;118512;-75
2022/06/24 10:07:05;;;;;;;6.82;2.38;;;25.60;99.90;;;27.23;42.71;99473.28;5023488;27;115174;-79
2022/06/24 10:09:35;;;;;;;7.93;2.65;;;25.20;99.90;;;26.74;45.36;99464.59;5022863;27;129339;-77
2022/06/24 10:12:05;;;;;;;6.60;2.40;;;25.40;99.90;;;26.54;45.26;99468.06;5024166;27;129691;-77
2022/06/24 10:14:36;;;;;;;4.65;2.10;;;25.20;99.90;;;26.76;44.18;99456.59;5028307;27;118522;-74
2022/06/24 10:17:06;;;;;;;5.72;2.90;;;25.20;99.90;;;26.42;42.57;99460.28;5042862;27;115453;-75
2022/06/24 10:19:36;;;;;;;3.85;2.33;;;25.00;99.90;;;26.84;44.41;99458.06;5024757;27;129923;-75
2022/06/24 10:22:05;;;;;;;3.40;2.00;;;25.30;99.90;;;26.26;43.78;99452.59;5042105;27;129411;-75
2022/06/24 10:24:42;;;;;;;3.63;1.92;;;25.10;99.90;;;26.22;43.15;99446.28;5026723;27;118066;-79
2022/06/24 10:27:11;;;;;;;5.85;2.20;;;24.90;99.90;;;26.35;42.82;99452.03;5037194;27;115084;-77
2022/06/24 10:29:39;;;;;;;5.13;2.40;;;25.20;99.90;;;27.07;42.05;99443.34;5030805;27;130356;-79
2022/06/24 10:32:10;;;;;;;3.50;2.17;;;25.50;99.90;;;27.35;41.25;99444.06;5007443;28;130285;-76
2022/06/24 10:34:43;;;;;;;4.53;2.25;;;25.70;99.90;;;26.95;40.83;99441.16;5022206;28;118727;-79